Aviation Digital Data Service (ADDS)

Output produced by METARs form (0139 UTC 29 May 2022)
found at http://www.aviationweather.gov/metar/data/
 
METAR text: WSSL 290100Z VRB02KT 9999 FEW018 BKN300 30/24 Q1009
Conditions at: WSSL (SINGAPORE/SELETA, SG) observed 0100 UTC 29 May 2022
Temperature: 30.0°C (86°F)
Dewpoint: 24.0°C (75°F) [RH = 70%]
Pressure (altimeter): 29.79 inches Hg (1009.0 mb)
Winds: variable direction winds at 2 MPH (2 knots; 1.0 m/s)
Visibility: 6 or more miles (10+ km)
Ceiling: 30000 feet AGL
Clouds: few clouds at 1800 feet AGL
broken clouds at 30000 feet AGL
Weather: no significant weather observed at this time

Forecast for: WSSL (SINGAPORE/SELETA, SG)
Text: TAF WSSL 282300Z 2900/3006 22007KT 9999 FEW015 SCT020
Forecast period: 0000 UTC 29 May 2022 to 0600 UTC 30 May 2022
Forecast type: FROM: standard forecast or significant change
Winds: from the SW (220 degrees) at 8 MPH (7 knots; 3.6 m/s)
Visibility: 6 or more miles (10+ km)
Ceiling: at least 12,000 feet AGL
Clouds: few clouds at 1500 feet AGL
scattered clouds at 2000 feet AGL
Weather: no significant weather forecast for this period